createdAt,value
2018-05-08T00:00:53.832Z,999.11
2018-05-08T00:02:46.680Z,999.10
2018-05-08T00:03:46.664Z,999.07
2018-05-08T00:05:39.520Z,999.02
2018-05-08T00:06:39.491Z,999.02
2018-05-08T00:08:32.352Z,998.99
2018-05-08T00:09:32.320Z,998.97
2018-05-08T00:11:25.177Z,998.98
2018-05-08T00:12:25.152Z,998.99
2018-05-08T00:14:18.011Z,999.00
2018-05-08T00:15:17.991Z,999.00
2018-05-08T00:17:10.847Z,998.97
2018-05-08T00:18:10.817Z,998.94
2018-05-08T00:20:03.675Z,998.99
2018-05-08T00:21:03.646Z,998.93
2018-05-08T00:22:56.512Z,998.97
2018-05-08T00:23:56.479Z,998.98
2018-05-08T00:25:49.336Z,999.03
2018-05-08T00:26:49.309Z,999.03
2018-05-08T00:28:42.162Z,998.99
2018-05-08T00:29:42.138Z,998.99
2018-05-08T00:31:34.999Z,999.00
2018-05-08T00:32:34.970Z,998.98
2018-05-08T00:34:27.818Z,998.95
2018-05-08T00:35:27.797Z,998.94
2018-05-08T00:37:20.652Z,998.90
2018-05-08T00:38:20.624Z,998.87
2018-05-08T00:40:13.480Z,998.91
2018-05-08T00:41:13.459Z,998.88
2018-05-08T00:43:06.301Z,998.90
2018-05-08T00:44:06.281Z,998.88
2018-05-08T00:45:59.141Z,998.83
2018-05-08T00:46:59.113Z,998.86
2018-05-08T00:48:51.962Z,998.81
2018-05-08T00:49:51.941Z,998.81
2018-05-08T00:51:44.804Z,998.82
2018-05-08T00:52:44.769Z,998.79
2018-05-08T00:54:37.627Z,998.81
2018-05-08T00:55:37.611Z,998.77
2018-05-08T00:57:30.454Z,998.78
2018-05-08T00:58:30.425Z,998.73
2018-05-08T01:00:23.279Z,998.74
2018-05-08T01:01:23.252Z,998.72
2018-05-08T01:03:16.102Z,998.76
2018-05-08T01:04:16.081Z,998.74
2018-05-08T01:06:08.941Z,998.68
2018-05-08T01:07:08.914Z,998.68
2018-05-08T01:09:01.763Z,998.69
2018-05-08T01:10:01.742Z,998.69
2018-05-08T01:11:54.605Z,998.67
2018-05-08T01:12:54.572Z,998.64
2018-05-08T01:14:47.422Z,998.62
2018-05-08T01:15:47.400Z,998.61
2018-05-08T01:17:40.265Z,998.64
2018-05-08T01:18:40.228Z,998.63
2018-05-08T01:20:33.091Z,998.63
2018-05-08T01:21:33.063Z,998.65
2018-05-08T01:23:25.913Z,998.67
2018-05-08T01:24:25.890Z,998.70
2018-05-08T01:26:18.747Z,998.68
2018-05-08T01:27:18.721Z,998.67
2018-05-08T01:29:11.569Z,998.68
2018-05-08T01:30:11.550Z,998.69
2018-05-08T01:32:04.410Z,998.72
2018-05-08T01:33:04.380Z,998.69
2018-05-08T01:34:57.232Z,998.75
2018-05-08T01:35:57.213Z,998.76
2018-05-08T01:37:50.070Z,998.76
2018-05-08T01:38:50.041Z,998.73
2018-05-08T01:40:42.899Z,998.69
2018-05-08T01:41:42.870Z,998.71
2018-05-08T01:43:35.724Z,998.73
2018-05-08T01:44:35.709Z,998.71
2018-05-08T01:46:28.560Z,998.73
2018-05-08T01:47:28.530Z,998.70
2018-05-08T01:49:21.380Z,998.69
2018-05-08T01:50:21.359Z,998.66
2018-05-08T01:52:14.216Z,998.65
2018-05-08T01:53:14.190Z,998.62
2018-05-08T01:55:07.036Z,998.62
2018-05-08T01:56:07.017Z,998.68
2018-05-08T01:57:59.883Z,998.66
2018-05-08T01:58:59.849Z,998.63
2018-05-08T02:00:52.707Z,998.64
2018-05-08T02:01:52.680Z,998.60
2018-05-08T02:03:45.527Z,998.66
2018-05-08T02:04:45.510Z,998.62
2018-05-08T02:06:38.367Z,998.61
2018-05-08T02:07:38.339Z,998.63
2018-05-08T02:09:31.188Z,998.60
2018-05-08T02:10:31.168Z,998.62
2018-05-08T02:12:24.073Z,998.62
2018-05-08T02:13:24.000Z,998.60
2018-05-08T02:15:16.925Z,998.61
2018-05-08T02:16:16.826Z,998.60
2018-05-08T02:18:09.684Z,998.58
2018-05-08T02:19:09.666Z,998.54
2018-05-08T02:21:02.514Z,998.51
2018-05-08T02:22:02.485Z,998.53
2018-05-08T02:23:55.336Z,998.51
2018-05-08T02:24:55.314Z,998.53
2018-05-08T02:26:48.172Z,998.52
2018-05-08T02:27:48.146Z,998.48
2018-05-08T02:29:40.996Z,998.54
2018-05-08T02:30:40.976Z,998.51
2018-05-08T02:32:33.842Z,998.52
2018-05-08T02:33:33.813Z,998.48
2018-05-08T02:35:26.661Z,998.51
2018-05-08T02:36:26.641Z,998.50
2018-05-08T02:38:19.498Z,998.49
2018-05-08T02:39:19.471Z,998.51
2018-05-08T02:41:12.334Z,998.51
2018-05-08T02:42:12.307Z,998.49
2018-05-08T02:44:05.157Z,998.44
2018-05-08T02:45:05.135Z,998.48
2018-05-08T02:46:58.006Z,998.48
2018-05-08T02:47:58.030Z,998.50
2018-05-08T02:49:50.813Z,998.47
2018-05-08T02:50:50.793Z,998.50
2018-05-08T02:52:43.649Z,998.47
2018-05-08T02:53:43.623Z,998.47
2018-05-08T02:55:36.473Z,998.48
2018-05-08T02:56:36.457Z,998.46
2018-05-08T02:58:29.305Z,998.45
2018-05-08T02:59:29.283Z,998.44
2018-05-08T03:01:22.137Z,998.46
2018-05-08T03:02:22.113Z,998.41
2018-05-08T03:04:14.963Z,998.45
2018-05-08T03:05:14.944Z,998.44
2018-05-08T03:07:07.800Z,998.47
2018-05-08T03:08:07.770Z,998.42
2018-05-08T03:10:00.621Z,998.42
2018-05-08T03:11:00.598Z,998.47
2018-05-08T03:12:53.457Z,998.43
2018-05-08T03:13:53.428Z,998.43
2018-05-08T03:15:46.282Z,998.51
2018-05-08T03:16:46.259Z,998.56
2018-05-08T03:18:39.110Z,998.49
2018-05-08T03:19:39.084Z,998.48
2018-05-08T03:21:31.940Z,998.48
2018-05-08T03:22:31.912Z,998.44
2018-05-08T03:24:24.762Z,998.49
2018-05-08T03:25:24.743Z,998.48
2018-05-08T03:27:17.599Z,998.47
2018-05-08T03:28:17.572Z,998.43
2018-05-08T03:30:10.431Z,998.41
2018-05-08T03:31:10.401Z,998.42
2018-05-08T03:33:03.263Z,998.36
2018-05-08T03:34:03.236Z,998.45
2018-05-08T03:35:56.093Z,998.46
2018-05-08T03:36:56.062Z,998.42
2018-05-08T03:38:48.911Z,998.44
2018-05-08T03:39:48.889Z,998.45
2018-05-08T03:41:41.751Z,998.45
2018-05-08T03:42:41.720Z,998.46
2018-05-08T03:44:34.646Z,998.45
2018-05-08T03:45:34.553Z,998.50
2018-05-08T03:47:27.403Z,998.51
2018-05-08T03:48:27.378Z,998.53
2018-05-08T03:50:20.227Z,998.58
2018-05-08T03:51:20.255Z,998.60
2018-05-08T03:53:13.067Z,998.61
2018-05-08T03:54:13.041Z,998.56
2018-05-08T03:56:05.895Z,998.58
2018-05-08T03:57:05.872Z,998.63
2018-05-08T03:58:58.721Z,998.59
2018-05-08T03:59:58.699Z,998.57
2018-05-08T04:01:51.557Z,998.57
2018-05-08T04:02:51.526Z,998.57
2018-05-08T04:04:44.376Z,998.53
2018-05-08T04:05:44.358Z,998.54
2018-05-08T04:07:37.218Z,998.57
2018-05-08T04:08:37.187Z,998.54
2018-05-08T04:10:30.041Z,998.58
2018-05-08T04:11:30.018Z,998.54
2018-05-08T04:13:22.881Z,998.50
2018-05-08T04:14:22.849Z,998.52
2018-05-08T04:16:15.697Z,998.52
2018-05-08T04:17:15.678Z,998.50
2018-05-08T04:19:08.590Z,998.48
2018-05-08T04:20:08.506Z,998.52
2018-05-08T04:22:01.355Z,998.50
2018-05-08T04:23:01.339Z,998.53
2018-05-08T04:24:54.207Z,998.53
2018-05-08T04:25:54.166Z,998.50
2018-05-08T04:27:47.017Z,998.51
2018-05-08T04:28:46.999Z,998.52
2018-05-08T04:30:39.858Z,998.50
2018-05-08T04:31:39.834Z,998.54
2018-05-08T04:33:32.683Z,998.52
2018-05-08T04:34:32.670Z,998.50
2018-05-08T04:36:25.527Z,998.51
2018-05-08T04:37:25.495Z,998.50
2018-05-08T04:39:18.355Z,998.54
2018-05-08T04:40:18.338Z,998.51
2018-05-08T04:42:11.202Z,998.54
2018-05-08T04:43:11.176Z,998.55
2018-05-08T04:45:04.035Z,998.55
2018-05-08T04:46:04.018Z,998.55
2018-05-08T04:47:56.888Z,998.54
2018-05-08T04:48:56.856Z,998.60
2018-05-08T04:50:49.722Z,998.62
2018-05-08T04:51:49.699Z,998.60
2018-05-08T04:53:42.558Z,998.58
2018-05-08T04:54:42.541Z,998.64
2018-05-08T04:56:35.407Z,998.66
2018-05-08T04:57:35.387Z,998.61
2018-05-08T04:59:28.249Z,998.65
2018-05-08T05:00:28.232Z,998.67
2018-05-08T05:02:21.102Z,998.67
2018-05-08T05:03:21.088Z,998.68
2018-05-08T05:05:13.943Z,998.69
2018-05-08T05:06:13.928Z,998.66
2018-05-08T05:08:06.801Z,998.65
2018-05-08T05:09:06.780Z,998.68
2018-05-08T05:10:59.650Z,998.67
2018-05-08T05:11:59.627Z,998.69
2018-05-08T05:13:52.494Z,998.66
2018-05-08T05:14:52.482Z,998.74
2018-05-08T05:16:45.402Z,998.70
2018-05-08T05:17:45.336Z,998.71
2018-05-08T05:19:38.201Z,998.72
2018-05-08T05:20:38.188Z,998.70
2018-05-08T05:22:31.060Z,998.71
2018-05-08T05:23:31.039Z,998.72
2018-05-08T05:25:23.903Z,998.66
2018-05-08T05:26:23.902Z,998.68
2018-05-08T05:28:16.766Z,998.64
2018-05-08T05:29:16.745Z,998.73
2018-05-08T05:31:09.620Z,998.69
2018-05-08T05:32:09.602Z,998.69
2018-05-08T05:34:02.467Z,998.68
2018-05-08T05:35:02.456Z,998.68
2018-05-08T05:36:55.332Z,998.71
2018-05-08T05:37:55.310Z,998.67
2018-05-08T05:39:48.181Z,998.66
2018-05-08T05:40:48.167Z,998.66
2018-05-08T05:42:41.134Z,998.65
2018-05-08T05:43:41.024Z,998.62
2018-05-08T05:45:33.905Z,998.58
2018-05-08T05:46:33.885Z,998.61
2018-05-08T05:48:26.758Z,998.64
2018-05-08T05:49:26.752Z,998.60
2018-05-08T05:51:19.623Z,998.61
2018-05-08T05:52:19.605Z,998.55
2018-05-08T05:54:12.474Z,998.60
2018-05-08T05:55:12.463Z,998.53
2018-05-08T05:57:05.340Z,998.53
2018-05-08T05:58:05.324Z,998.48
2018-05-08T05:59:58.278Z,998.49
2018-05-08T06:00:58.184Z,998.49
2018-05-08T06:02:51.061Z,998.52
2018-05-08T06:03:51.044Z,998.54
2018-05-08T06:05:43.920Z,998.51
2018-05-08T06:06:43.904Z,998.55
2018-05-08T06:08:36.783Z,998.51
2018-05-08T06:09:36.771Z,998.54
2018-05-08T06:11:29.651Z,998.53
2018-05-08T06:12:29.639Z,998.52
2018-05-08T06:14:22.512Z,998.53
2018-05-08T06:15:22.500Z,998.51
2018-05-08T06:17:15.473Z,998.51
2018-05-08T06:18:15.370Z,998.48
2018-05-08T06:20:08.240Z,998.47
2018-05-08T06:21:08.242Z,998.48
2018-05-08T06:23:01.114Z,998.52
2018-05-08T06:24:01.097Z,998.54
2018-05-08T06:25:53.982Z,998.49
2018-05-08T06:26:53.967Z,998.47
2018-05-08T06:28:46.854Z,998.41
2018-05-08T06:29:46.834Z,998.42
2018-05-08T06:31:39.722Z,998.42
2018-05-08T06:32:39.707Z,998.39
2018-05-08T06:34:32.579Z,998.43
2018-05-08T06:35:32.572Z,998.41
2018-05-08T06:37:25.457Z,998.40
2018-05-08T06:38:25.444Z,998.38
2018-05-08T06:40:18.319Z,998.43
2018-05-08T06:41:18.310Z,998.37
2018-05-08T06:43:11.190Z,998.37
2018-05-08T06:44:11.180Z,998.41
2018-05-08T06:46:04.057Z,998.36
2018-05-08T06:47:04.040Z,998.39
2018-05-08T06:48:56.916Z,998.36
2018-05-08T06:49:56.907Z,998.34
2018-05-08T06:51:49.792Z,998.37
2018-05-08T06:52:49.774Z,998.29
2018-05-08T06:54:42.651Z,998.29
2018-05-08T06:55:42.643Z,998.26
2018-05-08T06:57:35.523Z,998.22
2018-05-08T06:58:35.508Z,998.22
2018-05-08T07:00:28.389Z,998.28
2018-05-08T07:01:28.385Z,998.26
2018-05-08T07:03:21.261Z,998.23
2018-05-08T07:04:21.246Z,998.27
2018-05-08T07:06:14.134Z,998.22
2018-05-08T07:07:14.117Z,998.29
2018-05-08T07:09:07.050Z,998.30
2018-05-08T07:10:07.053Z,998.34
2018-05-08T07:11:59.870Z,998.32
2018-05-08T07:12:59.854Z,998.30
2018-05-08T07:14:52.801Z,998.31
2018-05-08T07:15:52.838Z,998.27
2018-05-08T07:17:45.609Z,998.34
2018-05-08T07:18:45.593Z,998.37
2018-05-08T07:20:38.475Z,998.39
2018-05-08T07:21:38.466Z,998.41
2018-05-08T07:23:31.351Z,998.40
2018-05-08T07:24:31.338Z,998.37
2018-05-08T07:26:24.225Z,998.35
2018-05-08T07:27:24.213Z,998.31
2018-05-08T07:29:17.088Z,998.39
2018-05-08T07:30:17.082Z,998.32
2018-05-08T07:32:09.969Z,998.26
2018-05-08T07:33:09.954Z,998.28
2018-05-08T07:35:02.904Z,998.32
2018-05-08T07:36:02.833Z,998.30
2018-05-08T07:37:55.714Z,998.33
2018-05-08T07:38:55.700Z,998.29
2018-05-08T07:40:48.580Z,998.36
2018-05-08T07:41:48.576Z,998.32
2018-05-08T07:43:41.468Z,998.30
2018-05-08T07:44:41.455Z,998.31
2018-05-08T07:46:34.345Z,998.27
2018-05-08T07:47:34.331Z,998.30
2018-05-08T07:49:27.219Z,998.27
2018-05-08T07:50:27.213Z,998.32
2018-05-08T07:52:20.101Z,998.34
2018-05-08T07:53:20.090Z,998.32
2018-05-08T07:55:12.989Z,998.37
2018-05-08T07:56:12.978Z,998.34
2018-05-08T07:58:05.857Z,998.35
2018-05-08T07:59:05.845Z,998.32
2018-05-08T08:00:58.726Z,998.31
2018-05-08T08:01:58.719Z,998.27
2018-05-08T08:03:51.611Z,998.30
2018-05-08T08:04:51.594Z,998.29
2018-05-08T08:06:44.486Z,998.34
2018-05-08T08:07:44.469Z,998.29
2018-05-08T08:09:37.349Z,998.32
2018-05-08T08:10:37.345Z,998.28
2018-05-08T08:12:30.229Z,998.25
2018-05-08T08:13:30.218Z,998.31
2018-05-08T08:15:23.099Z,998.26
2018-05-08T08:16:23.092Z,998.28
2018-05-08T08:18:15.978Z,998.32
2018-05-08T08:19:15.964Z,998.31
2018-05-08T08:21:08.845Z,998.37
2018-05-08T08:22:08.840Z,998.37
2018-05-08T08:24:01.733Z,998.33
2018-05-08T08:25:01.722Z,998.33
2018-05-08T08:26:54.614Z,998.36
2018-05-08T08:27:54.598Z,998.30
2018-05-08T08:29:47.514Z,998.37
2018-05-08T08:30:47.476Z,998.43
2018-05-08T08:32:40.362Z,998.35
2018-05-08T08:33:40.350Z,998.31
2018-05-08T08:35:33.274Z,998.56
2018-05-08T08:36:33.234Z,998.86
2018-05-08T08:38:26.115Z,999.54
2018-05-08T08:39:26.108Z,1000.16
2018-05-08T08:41:18.989Z,1000.23
2018-05-08T08:42:18.978Z,1000.51
2018-05-08T08:44:11.878Z,1001.14
2018-05-08T08:45:11.859Z,1001.16
2018-05-08T08:47:04.749Z,1001.44
2018-05-08T08:48:04.741Z,1001.33
2018-05-08T08:49:57.618Z,1001.73
2018-05-08T08:50:57.609Z,1002.11
2018-05-08T08:52:50.499Z,1002.83
2018-05-08T08:53:50.486Z,1003.06
2018-05-08T08:55:43.374Z,1003.50
2018-05-08T08:56:43.367Z,1003.59
2018-05-08T08:58:36.261Z,1003.99
2018-05-08T08:59:36.243Z,1003.83
2018-05-08T09:01:29.128Z,1003.19
2018-05-08T09:02:29.121Z,1004.54
2018-05-08T09:04:22.009Z,1004.09
2018-05-08T09:05:21.996Z,1004.51
2018-05-08T09:07:14.886Z,1004.33
2018-05-08T09:08:14.875Z,1004.08
2018-05-08T09:10:07.838Z,1004.71
2018-05-08T09:11:07.759Z,1004.74
2018-05-08T09:13:00.692Z,1004.27
2018-05-08T09:14:00.634Z,1004.34
2018-05-08T09:15:53.521Z,1004.26
2018-05-08T09:16:53.513Z,1004.81
2018-05-08T09:18:46.405Z,1004.05
2018-05-08T09:19:46.444Z,1004.67
2018-05-08T09:21:39.289Z,1004.48
2018-05-08T09:22:39.282Z,1003.98
2018-05-08T09:24:32.168Z,1004.19
2018-05-08T09:25:32.154Z,1004.27
2018-05-08T09:27:25.093Z,1004.27
2018-05-08T09:28:25.035Z,1004.41
2018-05-08T09:30:17.913Z,1004.29
2018-05-08T09:31:17.914Z,1004.21
2018-05-08T09:33:10.805Z,1003.95
2018-05-08T09:34:10.805Z,1003.97
2018-05-08T09:36:03.678Z,1004.02
2018-05-08T09:37:03.675Z,1003.72
2018-05-08T09:38:56.566Z,1004.08
2018-05-08T09:39:56.556Z,1003.47
2018-05-08T09:41:49.444Z,1003.17
2018-05-08T09:42:49.435Z,1003.40
2018-05-08T09:44:42.331Z,1002.80
2018-05-08T09:45:42.313Z,1002.39
2018-05-08T09:47:35.210Z,1002.53
2018-05-08T09:48:35.199Z,1002.40
2018-05-08T09:50:28.152Z,1001.79
2018-05-08T09:51:28.081Z,1001.89
2018-05-08T09:53:20.970Z,1001.68
2018-05-08T09:54:20.958Z,1001.21
2018-05-08T09:56:13.847Z,1000.69
2018-05-08T09:57:13.843Z,1000.67
2018-05-08T09:59:06.745Z,1000.25
2018-05-08T10:00:06.732Z,999.75
2018-05-08T10:01:59.633Z,999.49
2018-05-08T10:02:59.623Z,999.49
2018-05-08T10:04:52.510Z,999.08
2018-05-08T10:05:52.506Z,998.70
2018-05-08T10:07:45.391Z,998.65
2018-05-08T10:08:45.380Z,998.55
2018-05-08T10:10:38.273Z,998.28
2018-05-08T10:11:38.270Z,998.24
2018-05-08T10:13:31.161Z,997.96
2018-05-08T10:14:31.150Z,997.89
2018-05-08T10:16:24.040Z,997.81
2018-05-08T10:17:24.035Z,997.77
2018-05-08T10:19:16.925Z,997.78
2018-05-08T10:20:16.913Z,997.92
2018-05-08T10:22:09.804Z,997.84
2018-05-08T10:23:09.792Z,997.80
2018-05-08T10:25:02.679Z,997.58
2018-05-08T10:26:02.680Z,997.72
2018-05-08T10:27:55.568Z,997.74
2018-05-08T10:28:55.555Z,997.76
2018-05-08T10:30:48.442Z,997.72
2018-05-08T10:31:48.438Z,997.74
2018-05-08T10:33:41.333Z,997.85
2018-05-08T10:34:41.318Z,997.89
2018-05-08T10:36:34.202Z,997.88
2018-05-08T10:37:34.202Z,997.91
2018-05-08T10:39:27.092Z,997.79
2018-05-08T10:40:27.079Z,997.92
2018-05-08T10:42:19.974Z,997.96
2018-05-08T10:43:19.969Z,998.00
2018-05-08T10:45:12.863Z,998.23
2018-05-08T10:46:12.858Z,998.46
2018-05-08T10:48:05.753Z,998.75
2018-05-08T10:49:05.738Z,998.77
2018-05-08T10:50:58.626Z,998.41
2018-05-08T10:51:58.621Z,998.71
2018-05-08T10:53:51.513Z,998.79
2018-05-08T10:54:51.503Z,998.83
2018-05-08T10:56:44.387Z,998.95
2018-05-08T10:57:44.383Z,999.14
2018-05-08T10:59:37.272Z,998.50
2018-05-08T11:00:37.258Z,998.27
2018-05-08T11:02:30.150Z,998.22
2018-05-08T11:03:30.139Z,998.18
2018-05-08T11:05:23.088Z,998.15
2018-05-08T11:06:23.018Z,998.36
2018-05-08T11:08:15.914Z,998.38
2018-05-08T11:09:15.902Z,998.19
2018-05-08T11:11:08.788Z,998.28
2018-05-08T11:12:08.782Z,998.16
2018-05-08T11:14:01.673Z,997.84
2018-05-08T11:15:01.678Z,997.64
2018-05-08T11:16:54.545Z,997.35
2018-05-08T11:17:54.540Z,997.23
2018-05-08T11:19:47.491Z,997.07
2018-05-08T11:20:47.419Z,996.94
2018-05-08T11:22:40.309Z,997.19
2018-05-08T11:23:40.299Z,997.50
2018-05-08T11:25:33.183Z,997.39
2018-05-08T11:26:33.230Z,997.34
2018-05-08T11:28:26.072Z,997.21
2018-05-08T11:29:26.059Z,997.53
2018-05-08T11:31:18.942Z,997.34
2018-05-08T11:32:18.939Z,997.20
2018-05-08T11:34:11.828Z,997.21
2018-05-08T11:35:11.815Z,997.22
2018-05-08T11:37:04.700Z,997.13
2018-05-08T11:38:04.696Z,996.97
2018-05-08T11:39:57.589Z,997.21
2018-05-08T11:40:57.575Z,997.11
2018-05-08T11:42:50.558Z,997.36
2018-05-08T11:43:50.450Z,997.20
2018-05-08T11:45:43.333Z,997.24
2018-05-08T11:46:43.327Z,997.11
2018-05-08T11:48:36.212Z,997.13
2018-05-08T11:49:36.201Z,997.14
2018-05-08T11:51:29.084Z,996.80
2018-05-08T11:52:29.080Z,996.84
2018-05-08T11:54:21.968Z,996.81
2018-05-08T11:55:21.954Z,996.82
2018-05-08T11:57:14.838Z,996.93
2018-05-08T11:58:14.831Z,997.00
2018-05-08T12:00:07.719Z,996.98
2018-05-08T12:01:07.711Z,996.76
2018-05-08T12:03:00.600Z,996.53
2018-05-08T12:04:00.588Z,996.47
2018-05-08T12:05:53.469Z,996.30
2018-05-08T12:06:53.459Z,996.30
2018-05-08T12:08:46.347Z,996.20
2018-05-08T12:09:46.333Z,996.21
2018-05-08T12:11:39.217Z,996.13
2018-05-08T12:12:39.209Z,996.11
2018-05-08T12:14:32.123Z,995.99
2018-05-08T12:15:32.086Z,996.00
2018-05-08T12:17:24.966Z,995.93
2018-05-08T12:18:24.962Z,995.89
2018-05-08T12:20:17.852Z,995.91
2018-05-08T12:21:17.841Z,995.94
2018-05-08T12:23:10.740Z,996.00
2018-05-08T12:24:10.717Z,995.99
2018-05-08T12:26:03.595Z,995.90
2018-05-08T12:27:03.596Z,996.01
2018-05-08T12:28:56.479Z,995.99
2018-05-08T12:29:56.474Z,995.93
2018-05-08T12:31:49.347Z,995.70
2018-05-08T12:32:49.344Z,995.69
2018-05-08T12:34:42.232Z,995.63
2018-05-08T12:35:42.222Z,995.57
2018-05-08T12:37:35.100Z,995.55
2018-05-08T12:38:35.096Z,995.53
2018-05-08T12:40:27.985Z,995.52
2018-05-08T12:41:27.980Z,995.48
2018-05-08T12:43:20.872Z,995.44
2018-05-08T12:44:20.860Z,995.45
2018-05-08T12:46:13.735Z,995.43
2018-05-08T12:47:13.733Z,995.42
2018-05-08T12:49:06.621Z,995.42
2018-05-08T12:50:06.609Z,995.41
2018-05-08T12:51:59.493Z,995.30
2018-05-08T12:52:59.484Z,995.35
2018-05-08T12:54:52.370Z,995.35
2018-05-08T12:55:52.357Z,995.29
2018-05-08T12:57:45.242Z,995.26
2018-05-08T12:58:45.232Z,995.24
2018-05-08T13:00:38.122Z,995.28
2018-05-08T13:01:38.109Z,995.13
2018-05-08T13:03:30.996Z,995.13
2018-05-08T13:04:30.983Z,995.10
2018-05-08T13:06:23.860Z,995.11
2018-05-08T13:07:23.856Z,995.17
2018-05-08T13:09:16.745Z,995.17
2018-05-08T13:10:16.731Z,995.09
2018-05-08T13:12:09.607Z,995.11
2018-05-08T13:13:09.602Z,995.10
2018-05-08T13:15:02.488Z,995.08
2018-05-08T13:16:02.474Z,995.08
2018-05-08T13:17:55.350Z,995.05
2018-05-08T13:18:55.344Z,994.96
2018-05-08T13:20:48.225Z,995.00
2018-05-08T13:21:48.210Z,995.07
2018-05-08T13:23:41.092Z,995.00
2018-05-08T13:24:41.079Z,994.95
2018-05-08T13:26:34.012Z,994.98
2018-05-08T13:27:33.946Z,994.96
2018-05-08T13:29:26.832Z,994.94
2018-05-08T13:30:26.817Z,994.90
2018-05-08T13:32:19.689Z,994.74
2018-05-08T13:33:19.682Z,994.80
2018-05-08T13:35:12.572Z,994.79
2018-05-08T13:36:12.555Z,994.90
2018-05-08T13:38:05.430Z,994.77
2018-05-08T13:39:05.423Z,994.76
2018-05-08T13:40:58.307Z,994.75
2018-05-08T13:41:58.359Z,994.86
2018-05-08T13:43:51.180Z,994.78
2018-05-08T13:44:51.165Z,994.78
2018-05-08T13:46:44.043Z,994.66
2018-05-08T13:47:44.030Z,994.66
2018-05-08T13:49:36.919Z,994.74
2018-05-08T13:50:36.906Z,994.61
2018-05-08T13:52:29.777Z,994.55
2018-05-08T13:53:29.767Z,994.54
2018-05-08T13:55:22.656Z,994.53
2018-05-08T13:56:22.633Z,994.47
2018-05-08T13:58:15.511Z,994.44
2018-05-08T13:59:15.503Z,994.46
2018-05-08T14:01:08.384Z,994.38
2018-05-08T14:02:08.367Z,994.39
2018-05-08T14:04:01.249Z,994.37
2018-05-08T14:05:01.239Z,994.33
2018-05-08T14:06:54.178Z,994.32
2018-05-08T14:07:54.098Z,994.36
2018-05-08T14:09:46.979Z,994.28
2018-05-08T14:10:46.962Z,994.24
2018-05-08T14:12:39.835Z,994.20
2018-05-08T14:13:39.826Z,994.25
2018-05-08T14:15:32.814Z,994.04
2018-05-08T14:16:32.691Z,994.16
2018-05-08T14:18:25.567Z,994.10
2018-05-08T14:19:25.661Z,994.11
2018-05-08T14:21:18.440Z,994.20
2018-05-08T14:22:18.425Z,994.07
2018-05-08T14:24:11.295Z,994.10
2018-05-08T14:25:11.285Z,994.05
2018-05-08T14:27:04.159Z,994.06
2018-05-08T14:28:04.149Z,993.99
2018-05-08T14:29:57.033Z,994.01
2018-05-08T14:30:57.013Z,993.99
2018-05-08T14:32:49.886Z,993.96
2018-05-08T14:33:49.876Z,993.96
2018-05-08T14:35:42.757Z,994.02
2018-05-08T14:36:42.741Z,994.00
2018-05-08T14:38:35.671Z,993.94
2018-05-08T14:39:35.602Z,993.90
2018-05-08T14:41:28.485Z,993.92
2018-05-08T14:42:28.469Z,993.89
2018-05-08T14:44:21.355Z,993.95
2018-05-08T14:45:21.333Z,993.90
2018-05-08T14:47:14.203Z,993.96
2018-05-08T14:48:14.197Z,993.91
2018-05-08T14:50:07.077Z,993.93
2018-05-08T14:51:07.056Z,993.88
2018-05-08T14:52:59.928Z,993.88
2018-05-08T14:53:59.965Z,993.85
2018-05-08T14:55:52.794Z,993.85
2018-05-08T14:56:52.776Z,993.81
2018-05-08T14:58:45.657Z,993.80
2018-05-08T14:59:45.638Z,993.87
2018-05-08T15:01:38.506Z,993.82
2018-05-08T15:02:38.496Z,993.79
2018-05-08T15:04:31.372Z,993.74
2018-05-08T15:05:31.355Z,993.94
2018-05-08T15:07:24.796Z,993.81
2018-05-08T15:08:24.214Z,993.80
2018-05-08T15:10:17.093Z,993.84
2018-05-08T15:11:17.074Z,993.75
2018-05-08T15:13:09.962Z,993.74
2018-05-08T15:14:09.938Z,993.72
2018-05-08T15:16:02.816Z,993.72
2018-05-08T15:17:02.798Z,993.69
2018-05-08T15:18:55.682Z,993.66
2018-05-08T15:19:55.667Z,993.58
2018-05-08T15:21:48.561Z,993.55
2018-05-08T15:22:48.516Z,993.56
2018-05-08T15:24:41.391Z,993.51
2018-05-08T15:25:41.371Z,993.51
2018-05-08T15:27:34.239Z,993.43
2018-05-08T15:28:34.228Z,993.48
2018-05-08T15:30:27.105Z,993.53
2018-05-08T15:31:27.086Z,993.45
2018-05-08T15:33:19.958Z,993.45
2018-05-08T15:34:19.942Z,993.47
2018-05-08T15:36:12.818Z,993.43
2018-05-08T15:37:12.797Z,993.42
2018-05-08T15:39:05.672Z,993.51
2018-05-08T15:40:05.659Z,993.44
2018-05-08T15:41:58.524Z,993.42
2018-05-08T15:42:58.523Z,993.41
2018-05-08T15:44:51.387Z,993.37
2018-05-08T15:45:51.365Z,993.37
2018-05-08T15:47:44.236Z,993.38
2018-05-08T15:48:44.225Z,993.37
2018-05-08T15:50:37.097Z,993.40
2018-05-08T15:51:37.079Z,993.41
2018-05-08T15:53:29.944Z,993.37
2018-05-08T15:54:29.933Z,993.35
2018-05-08T15:56:22.807Z,993.36
2018-05-08T15:57:22.789Z,993.33
2018-05-08T15:59:15.661Z,993.36
2018-05-08T16:00:15.639Z,993.33
2018-05-08T16:02:08.542Z,993.27
2018-05-08T16:03:08.500Z,993.24
2018-05-08T16:05:01.450Z,993.21
2018-05-08T16:06:01.355Z,993.27
2018-05-08T16:07:54.220Z,993.20
2018-05-08T16:08:54.209Z,993.22
2018-05-08T16:10:47.081Z,993.18
2018-05-08T16:11:47.061Z,993.18
2018-05-08T16:13:39.946Z,993.18
2018-05-08T16:14:39.917Z,993.19
2018-05-08T16:16:32.790Z,993.21
2018-05-08T16:17:32.769Z,993.21
2018-05-08T16:19:25.641Z,993.19
2018-05-08T16:20:25.624Z,993.20
2018-05-08T16:22:18.493Z,993.20
2018-05-08T16:23:18.480Z,993.19
2018-05-08T16:25:11.354Z,993.18
2018-05-08T16:26:11.334Z,993.13
2018-05-08T16:28:04.200Z,993.08
2018-05-08T16:29:04.189Z,993.09
2018-05-08T16:30:57.062Z,993.19
2018-05-08T16:31:57.042Z,993.10
2018-05-08T16:33:49.907Z,993.08
2018-05-08T16:34:49.896Z,993.11
2018-05-08T16:36:42.772Z,993.09
2018-05-08T16:37:42.750Z,993.07
2018-05-08T16:39:35.718Z,993.08
2018-05-08T16:40:35.600Z,993.09
2018-05-08T16:42:28.469Z,993.13
2018-05-08T16:43:28.452Z,993.08
2018-05-08T16:45:21.333Z,993.11
2018-05-08T16:46:21.305Z,993.04
2018-05-08T16:48:14.172Z,993.05
2018-05-08T16:49:14.170Z,993.01
2018-05-08T16:51:07.037Z,993.00
2018-05-08T16:52:07.013Z,992.93
2018-05-08T16:53:59.880Z,992.99
2018-05-08T16:54:59.862Z,992.96
2018-05-08T16:56:52.739Z,992.92
2018-05-08T16:57:52.725Z,992.98
2018-05-08T16:59:45.663Z,992.94
2018-05-08T17:00:45.568Z,992.91
2018-05-08T17:02:38.435Z,992.96
2018-05-08T17:03:38.433Z,992.95
2018-05-08T17:05:31.293Z,992.95
2018-05-08T17:06:31.274Z,992.96
2018-05-08T17:08:24.138Z,992.98
2018-05-08T17:09:24.125Z,992.92
2018-05-08T17:11:16.999Z,992.92
2018-05-08T17:12:16.977Z,992.91
2018-05-08T17:14:09.843Z,992.92
2018-05-08T17:15:09.829Z,992.93
2018-05-08T17:17:02.705Z,992.92
2018-05-08T17:18:02.700Z,992.98
2018-05-08T17:19:55.555Z,992.91
2018-05-08T17:20:55.532Z,992.90
2018-05-08T17:22:48.394Z,992.90
2018-05-08T17:23:48.384Z,992.95
2018-05-08T17:25:41.343Z,992.94
2018-05-08T17:26:41.238Z,992.91
2018-05-08T17:28:34.103Z,992.97
2018-05-08T17:29:34.089Z,992.90
2018-05-08T17:31:26.959Z,992.94
2018-05-08T17:32:26.941Z,992.96
2018-05-08T17:34:19.813Z,992.96
2018-05-08T17:35:19.793Z,992.95
2018-05-08T17:37:12.655Z,992.96
2018-05-08T17:38:12.642Z,992.92
2018-05-08T17:40:05.516Z,992.91
2018-05-08T17:41:05.497Z,992.95
2018-05-08T17:42:58.358Z,992.95
2018-05-08T17:43:58.345Z,992.96
2018-05-08T17:45:51.217Z,992.94
2018-05-08T17:46:51.195Z,992.96
2018-05-08T17:48:44.061Z,992.94
2018-05-08T17:49:44.049Z,992.93
2018-05-08T17:51:36.921Z,992.90
2018-05-08T17:52:36.901Z,992.90
2018-05-08T17:54:29.771Z,992.91
2018-05-08T17:55:29.751Z,992.89